Headquarters, Valles Caldera, New Mexico Weather observations

Data are for 10 minute period ending at time listed.
 Day   Time   Solar   Ave.   Ave.  Ave.  Vector  Max.   Baro.   Total    
  of    of     Rad.   Air    Rel.  Wind   Wind   Wind  Press.  Precip.   
Year   Day            Temp.  Hum.  Speed  Dir.   Gust                    
2017   (MST)  Kw/m2    F      %     mph   deg.    mph    mb.     in.     
-------------------------------------------------------------------------
  87    5:20   0.00   21.1    94    1.0   272     3.0   731.6    0.00 
  87    5:30   0.00   20.5    92    4.3   220     6.0   731.5    0.00 
  87    5:40   0.00   21.7    96    3.7   266     5.4   731.5    0.00 
  87    5:50   0.00   23.3    95    1.3   236     3.0   731.5    0.00 
  87    6:00   0.00   22.3    93    0.9   224     2.4   731.6    0.00 
  87    6:10   0.01   22.6    94    1.9   243     3.0   731.6    0.00 
  87    6:20   0.02   24.8    96    2.5   256     3.6   731.6    0.00 
  87    6:30   0.01   26.5    96    2.6   237     4.2   731.7    0.00 
  87    6:40   0.01   26.9    94    2.0     1     4.2   731.8    0.00 
  87    6:50   0.02   24.8    94    1.4    25     3.0   731.9    0.00 
  87    7:00   0.04   25.2    95    0.9    62     2.4   731.9    0.00 
  87    7:10   0.07   25.3    94    2.9    72     4.2   731.9    0.00 
  87    7:20   0.07   25.7    95    3.2    51     4.2   731.7    0.00 
  87    7:30   0.06   25.9    94    4.4    79     6.0   731.7    0.00 
  87    7:40   0.07   25.5    94    2.0    48     4.2   731.8    0.00 
  87    7:50   0.07   26.0    95    2.2   192     3.6   731.7    0.00 
  87    8:00   0.05   26.7    95    5.3   216     7.8   731.6    0.00 
  87    8:10   0.05   27.7    95    4.2   210     6.0   731.6    0.00 
  87    8:20   0.05   28.8    95    1.7   286     3.6   731.6    0.00 
  87    8:30   0.07   29.9    95    1.9   339     3.0   731.6    0.00 
  87    8:40   0.07   30.7    94    1.7   228     3.6   731.6    0.00 
  87    8:50   0.09   30.9    93    1.4   186     3.0   731.6    0.00 
  87    9:00   0.10   31.4    91    2.7   151     4.8   731.7    0.00 
  87    9:10   0.07   31.5    90    2.3   190     3.6   731.7    0.00 
  87    9:20   0.05   31.3    89    1.5   202     3.6   731.9    0.00 
  87    9:30   0.03   31.2    90    4.3   205     7.8   732.0    0.00 
  87    9:40   0.05   31.2    90    7.6   224    11.3   732.0    0.00 
  87    9:50   0.05   31.0    92    8.9   234    14.3   731.8    0.00 
  87   10:00   0.04   30.0    92    7.2   252    11.9   731.9    0.01 
  87   10:10   0.04   29.5    94    6.7   236     9.6   732.1    0.01 
  87   10:20   0.05   29.3    94    6.9   232    11.9   732.0    0.00 
  87   10:30   0.05   29.2    94    6.4   210     8.4   731.9    0.02 
  87   10:40   0.06   29.3    94    6.1   216     9.0   731.9    0.00 
  87   10:50   0.06   29.3    94    6.2   216     9.0   731.9    0.01 
  87   11:00   0.06   29.0    94    6.0   230    10.2   732.0    0.00 
  87   11:10   0.08   29.3    94    4.1   217     5.4   732.0    0.01 
  87   11:20   0.14   29.7    93    5.0   245    10.8   731.9    0.01 
  87   11:30   0.21   30.2    93    5.0   234     9.0   731.6    0.03 
  87   11:40   0.20   30.5    92    1.4   209     7.2   731.6    0.04 
  87   11:50   0.22   30.6    91    3.2    32     6.0   731.4    0.01 
  87   12:00   0.29   30.3    92    4.5    93     6.6   731.1    0.00 
  87   12:10   0.25   30.3    93    5.9   116     7.8   731.1    0.00 
  87   12:20   0.25   30.7    93    5.7   118     8.4   731.0    0.00 
  87   12:30   0.25   31.4    92    4.0   117     5.4   731.1    0.00 
  87   12:40   0.18   31.4    92    3.4    86     6.0   731.0    0.00 
  87   12:50   0.17   31.7    92    1.6    67     3.0   730.9    0.00 
  87   13:00   0.32   32.6    90    1.9    90     3.6   730.7    0.00 
  87   13:10   0.39   33.1    89    2.5   138     4.8   730.6    0.00 
  87   13:20   0.41   34.0    88    1.6   111     4.2   730.5    0.00 
  87   13:30   0.55   34.5    86    3.1   100     6.0   730.2    0.00 
  87   13:40   0.51   34.0    84    5.8    93     7.8   730.2    0.00 
  87   13:50   0.42   34.1    84    5.2   108     7.8   730.1    0.00 
  87   14:00   0.58   34.8    85    5.7    80     8.4   730.1    0.00 
  87   14:10   0.39   34.9    84    5.7    78     8.4   730.1    0.00 
  87   14:20   0.54   35.5    85    4.4    72     7.8   730.0    0.00 
  87   14:30   0.30   36.1    82    1.0    91     5.4   729.9    0.00 
  87   14:40   0.29   35.7    81    3.8   115     6.0   729.8    0.00 
  87   14:50   0.24   35.2    83    4.4   110     8.4   729.8    0.00 
  87   15:00   0.16   34.5    84    6.1    67     9.6   730.0    0.00 
  87   15:10   0.14   34.1    86    6.1    65    10.2   730.0    0.00 
  87   15:20   0.12   34.3    85    5.3    84     8.4   730.2    0.00 
  87   15:30   0.09   33.5    88    3.8   119     7.2   730.2    0.00 
  87   15:40   0.08   33.1    87    3.7   156     4.8   730.1    0.00 
  87   15:50   0.08   32.8    86    4.9   143     8.4   730.2    0.00 
  87   16:00   0.09   32.0    88    4.5   106     7.2   730.4    0.00 
  87   16:10   0.14   31.4    91    1.4    80     4.8   730.4    0.02 
  87   16:20   0.14   31.2    92    0.0     0     0.0   730.5    0.00 
  87   16:30   0.16   31.3    92    0.0     0     0.0   730.5    0.00 
  87   16:40   0.16   31.3    92    0.0     0     0.0   730.7    0.00 
  87   16:50   0.17   31.7    91    0.0     0     0.0   730.8    0.00 
  87   17:00   0.14   31.9    90    1.9    40     4.2   730.8    0.00 
  87   17:10   0.10   32.0    90    1.6    54     3.0   730.8    0.00 
  87   17:20   0.07   32.1    90    1.0    90     2.4   730.9    0.00 
  87   17:30   0.06   32.1    90    0.0     0     0.0   730.9    0.00 
  87   17:40   0.04   32.1    89    0.6    54     2.4   731.0    0.00 
  87   17:50   0.03   31.7    90    1.7    68     3.0   731.1    0.00 
  87   18:00   0.03   31.5    91    0.2    82     1.8   731.1    0.00 
  87   18:10   0.02   31.4    91    0.0     0     0.0   731.1    0.00 
  87   18:20   0.01   31.0    92    0.0     0     0.0   731.1    0.00 
  87   18:30   0.00   30.5    92    0.0     0     0.0   730.9    0.00 
  87   18:40   0.00   30.1    92    0.0     0     0.0   730.9    0.00 
  87   18:50   0.00   29.4    93    0.0     0     0.0   730.9    0.00 
  87   19:00   0.00   29.0    94    0.0     0     0.0   730.8    0.00 
  87   19:10   0.00   29.0    93    0.0     0     0.0   730.8    0.00 
  87   19:20   0.00   28.6    93    0.0     0     0.0   730.9    0.00 
  87   19:30   0.00   29.1    92    0.0     0     0.0   730.9    0.00 
  87   19:40   0.00   28.9    90    0.0     0     0.0   730.9    0.00 
  87   19:50   0.00   27.7    90    0.0     0     0.0   730.8    0.00 
  87   20:00   0.00   26.9    92    0.0     0     0.0   731.0    0.00 
  87   20:10   0.00   27.9    94    0.0     0     0.0   731.0    0.00 
  87   20:20   0.00   28.4    93    0.0     0     0.0   730.9    0.00 
  87   20:30   0.00   28.1    92    0.0     0     0.0   730.9    0.00 
  87   20:40   0.00   28.9    91    0.0     0     0.0   730.5    0.00 
  87   20:50   0.00   29.7    86    0.0     0     0.0   730.3    0.00 
  87   21:00   0.00   31.0    83    0.0     0     0.0   730.1    0.00 
  87   21:10   0.00   31.3    82    0.0     0     0.0   730.1    0.00 
  87   21:20   0.00   30.8    83    0.0     0     0.0   730.3    0.00 
  87   21:30   0.00   30.1    85    0.0     0     0.0   730.1    0.00 
  87   21:40   0.00   29.4    86    0.0     0     0.0   730.2    0.00 
  87   21:50   0.00   28.9    89    0.0     0     0.0   729.9    0.00 
  87   22:00   0.00   28.4    90    0.0     0     0.0   730.3    0.00 
  87   22:10   0.00   29.2    90    0.0     0     0.0   730.6    0.00 
  87   22:20   0.00   29.6    90    0.0     0     0.0   730.5    0.00 
  87   22:30   0.00   30.2    89    0.0     0     0.0   730.6    0.00 
  87   22:40   0.00   30.3    89    0.0     0     0.0   730.7    0.00 
  87   22:50   0.00   30.3    89    0.0     0     0.0   730.7    0.00 
  87   23:00   0.00   30.3    90    0.0     0     0.0   730.6    0.01 
  87   23:10   0.00   30.0    92    0.0     0     0.0   730.7    0.00 
  87   23:20   0.00   30.1    93    0.0     0     0.0   730.6    0.00 
  87   23:30   0.00   29.7    93    0.0     0     0.0   730.5    0.00 
  87   23:40   0.00   28.8    93    0.0     0     0.0   730.6    0.00 
  87   23:50   0.00   28.2    93    0.0     0     0.0   730.9    0.00 
  88    0:00   0.00   28.0    94    0.0     0     0.0   731.3    0.01 
  88    0:10   0.00   29.0    95    0.0     0     0.0   731.4    0.00 
  88    0:20   0.00   29.2    95    0.0     0     0.0   731.5    0.00 
  88    0:30   0.00   29.3    95    0.0     0     0.0   731.6    0.00 
  88    0:40   0.00   30.1    92    0.0     0     0.0   731.7    0.00 
  88    0:50   0.00   31.6    86    0.0     0     0.0   731.8    0.00 
  88    1:00   0.00   31.8    86    0.0     0     0.0   732.0    0.00 
  88    1:10   0.00   31.6    88    0.0     0     0.0   732.0    0.00 
  88    1:20   0.00   31.5    89    0.0     0     0.0   732.1    0.00 
  88    1:30   0.00   31.0    90    0.0     0     0.0   732.2    0.00 
  88    1:40   0.00   30.7    91    0.0     0     0.0   732.2    0.00 
  88    1:50   0.00   30.4    91    0.0     0     0.0   732.3    0.00 
  88    2:00   0.00   30.2    90    0.0     0     0.0   732.4    0.00 
  88    2:10   0.00   30.2    90    0.0     0     0.0   732.5    0.00 
  88    2:20   0.00   31.3    88    0.0     0     0.0   732.4    0.00 
  88    2:30   0.00   31.1    90    0.0     0     0.0   732.6    0.01 
  88    2:40   0.00   30.7    91    0.0     0     0.0   732.6    0.00 
  88    2:50   0.00   30.5    93    6.3    17    14.9   732.7    0.00 
  88    3:00   0.00   30.5    94    5.9    37    10.8   732.9    0.01 
  88    3:10   0.00   30.4    95    6.2    39    10.8   733.0    0.00 
  88    3:20   0.00   30.2    95    4.8    39     7.8   733.0    0.01 
  88    3:30   0.00   30.1    95    2.9    68     4.8   733.1    0.02 
  88    3:40   0.00   30.1    95    0.6    72     3.0   733.1    0.01 
  88    3:50   0.00   30.1    96    0.0     0     0.0   733.1    0.01 
  88    4:00   0.00   30.1    96    0.0     0     0.0   733.2    0.01 
  88    4:10   0.00   30.0    96    0.0     0     0.0   733.3    0.02 
  88    4:20   0.00   30.0    96    0.0     0     0.0   733.4    0.01 
  88    4:30   0.00   29.9    96    0.0     0     0.0   733.4    0.00 
  88    4:40   0.00   29.9    96    0.0     0     0.0   733.4    0.00 
  88    4:50   0.00   29.7    96    0.0     0     0.0   733.4    0.01 
  88    5:00   0.00   29.6    96    0.0     0     0.0   733.5    0.00 
  88    5:10   0.00   29.6    96    0.0     0     0.0   733.5    0.00 

Return to Headquarters, Valles Caldera graphs page.


Western Regional Climate Center,wrcc@dri.edu